Virtual United States Air Force

 METAR AND TAF INFORMATION
METAR FOR KSSC
ADDS - METARS form results

(0755 UTC 24 April 2019)
Data provider http://aviationweather.gov/metar/data/
 
METAR text: KSSC 240751Z AUTO 19006KT 2SM HZ SCT200 BKN220 17/13 A2995 RMK AO2 VIS 2V2 1/2 SLP142 $
Conditions at: KSSC (SHAW AFB/SUMTER , SC, US) observed 0751 UTC 24 April 2019
Temperature: 17.0°C (63°F)
Dewpoint: 13.0°C (55°F) [RH = 77%]
Pressure (altimeter): 29.95 inches Hg (1014.3 mb)
[Sea-level pressure: 1014.2 mb]
Winds: from the S (190 degrees) at 7 MPH (6 knots; 3.1 m/s)
Visibility: 2.00 miles (3.22 km)
Ceiling: 22000 feet AGL
Clouds: scattered clouds at 20000 feet AGL
broken clouds at 22000 feet AGL
Weather: HZ  (haze)
SOME DATA ABOVE MAY BE INACCURATE!!!
"$" is an indication the sensor requires maintenance

METAR text: KSSC 240741Z AUTO 19004KT 2 1/2SM HZ SCT200 BKN220 17/14 A2995 RMK AO2 SLP142 $
Conditions at: KSSC (SHAW AFB/SUMTER , SC, US) observed 0741 UTC 24 April 2019
Temperature: 17.0°C (63°F)
Dewpoint: 14.0°C (57°F) [RH = 82%]
Pressure (altimeter): 29.95 inches Hg (1014.3 mb)
[Sea-level pressure: 1014.2 mb]
Winds: from the S (190 degrees) at 5 MPH (4 knots; 2.1 m/s)
Visibility: 2.50 miles (4.02 km)
Ceiling: 22000 feet AGL
Clouds: scattered clouds at 20000 feet AGL
broken clouds at 22000 feet AGL
Weather: HZ  (haze)
SOME DATA ABOVE MAY BE INACCURATE!!!
"$" is an indication the sensor requires maintenance

METAR text: KSSC 240721Z AUTO 19004KT 2 1/2SM HZ SCT220 17/14 A2995 RMK AO2 SLP142 $
Conditions at: KSSC (SHAW AFB/SUMTER , SC, US) observed 0721 UTC 24 April 2019
Temperature: 17.0°C (63°F)
Dewpoint: 14.0°C (57°F) [RH = 82%]
Pressure (altimeter): 29.95 inches Hg (1014.3 mb)
[Sea-level pressure: 1014.2 mb]
Winds: from the S (190 degrees) at 5 MPH (4 knots; 2.1 m/s)
Visibility: 2.50 miles (4.02 km)
Ceiling: at least 12,000 feet AGL
Clouds: scattered clouds at 22000 feet AGL
Weather: HZ  (haze)
SOME DATA ABOVE MAY BE INACCURATE!!!
"$" is an indication the sensor requires maintenance

METAR text: KSSC 240711Z AUTO 19005KT 2 1/4SM HZ SCT230 17/14 A2996 RMK AO2 SLP145 $
Conditions at: KSSC (SHAW AFB/SUMTER , SC, US) observed 0711 UTC 24 April 2019
Temperature: 17.0°C (63°F)
Dewpoint: 14.0°C (57°F) [RH = 82%]
Pressure (altimeter): 29.96 inches Hg (1014.6 mb)
[Sea-level pressure: 1014.5 mb]
Winds: from the S (190 degrees) at 6 MPH (5 knots; 2.6 m/s)
Visibility: 2.25 miles (3.62 km)
Ceiling: at least 12,000 feet AGL
Clouds: scattered clouds at 23000 feet AGL
Weather: HZ  (haze)
SOME DATA ABOVE MAY BE INACCURATE!!!
"$" is an indication the sensor requires maintenance

METAR text: KSSC 240701Z AUTO 19004KT 2 1/2SM HZ BKN220 17/14 A2996 RMK AO2 SLP145 $
Conditions at: KSSC (SHAW AFB/SUMTER , SC, US) observed 0701 UTC 24 April 2019
Temperature: 17.0°C (63°F)
Dewpoint: 14.0°C (57°F) [RH = 82%]
Pressure (altimeter): 29.96 inches Hg (1014.6 mb)
[Sea-level pressure: 1014.5 mb]
Winds: from the S (190 degrees) at 5 MPH (4 knots; 2.1 m/s)
Visibility: 2.50 miles (4.02 km)
Ceiling: 22000 feet AGL
Clouds: broken clouds at 22000 feet AGL
Weather: HZ  (haze)
SOME DATA ABOVE MAY BE INACCURATE!!!
"$" is an indication the sensor requires maintenance

METAR text: KSSC 240656Z AUTO 19003KT 2 3/4SM HZ BKN230 17/14 A2996 RMK AO2 VIS 2 1/4V2 3/4 SLP145 T01720139 $
Conditions at: KSSC (SHAW AFB/SUMTER , SC, US) observed 0656 UTC 24 April 2019
Temperature: 17.2°C (63°F)
Dewpoint: 13.9°C (57°F) [RH = 81%]
Pressure (altimeter): 29.96 inches Hg (1014.6 mb)
[Sea-level pressure: 1014.5 mb]
Winds: from the S (190 degrees) at 3 MPH (3 knots; 1.5 m/s)
Visibility: 2.75 miles (4.43 km)
Ceiling: 23000 feet AGL
Clouds: broken clouds at 23000 feet AGL
Weather: HZ  (haze)
SOME DATA ABOVE MAY BE INACCURATE!!!
"$" is an indication the sensor requires maintenance

Forecast for: KSSC (SHAW AFB/SUMTER , SC, US)
Text: TAF KSSC 240700Z 2407/2513 22006KT 9999 SCT250 QNH2994INS
Forecast period: 0700 to 1500 UTC 24 April 2019
Forecast type: FROM: standard forecast or significant change
Winds: from the SW (220 degrees) at 7 MPH (6 knots; 3.1 m/s)
Visibility: 6 or more miles 10+ km)
Ceiling: at least 12,000 feet AGL
Clouds: scattered clouds at 25000 feet AGL
Weather: no significant weather forecast for this period
Text: BECMG 2415/2416 26010G15KT 9999 FEW150 QNH2988INS
Forecast period: 1500 to 2200 UTC 24 April 2019
Forecast type: BECOMING: Conditions expected to become as follows by 1600 UTC 24 April 2019
Winds: from the W (260 degrees) at 12 MPH (10 knots; 5.1 m/s)
gusting to 17 MPH (15 knots; 7.7 m/s)
Visibility: 6 or more miles 10+ km)
Ceiling: at least 12,000 feet AGL
Clouds: few clouds at 15000 feet AGL
Weather: no significant weather forecast for this period
Text: BECMG 2422/2423 25009KT 9999 FEW120 QNH2989INS TX31/2419Z TN15/2411Z
Forecast period: 2200 UTC 24 April 2019 to 1300 UTC 25 April 2019
Forecast type: BECOMING: Conditions expected to become as follows by 2300 UTC 24 April 2019
Winds: from the WSW (250 degrees) at 10 MPH (9 knots; 4.6 m/s)
Visibility: 6 or more miles 10+ km)
Ceiling: at least 12,000 feet AGL
Clouds: few clouds at 12000 feet AGL
Weather: no significant weather forecast for this period

 AIRPORT MAP

 RUNWAY INFORMATION
Runway 04L Runway length 10016 ft Runway width 150 ft
Runway elevation 238 ft Runway displaced threshold 0 ft Runway heading 35
Runway 22R Runway length 10016 ft Runway width 150 ft
Runway elevation 241 ft Runway displaced threshold 0 ft Runway heading 215
Runway 04R Runway length 8001 ft Runway width 150 ft
Runway elevation 237 ft Runway displaced threshold 0 ft Runway heading 35
Runway 22L Runway length 8001 ft Runway width 150 ft
Runway elevation 235 ft Runway displaced threshold 0 ft Runway heading 215

 AIRPORT FREQUENCIES
Type A/D Name APP/DEP Frequency 125.4 MHZ
Type ATIS Name ATIS Frequency 132.125 MHZ
Type CLD Name CLNC DEL Frequency 121.8 MHZ
Type GND Name GND Frequency 126.1 MHZ
Type PMSV Name PMSV METRO Frequency 34.25 MHZ
Type POST Name COMD POST Frequency 38.13 MHZ
Type PTD Name PTD Frequency 139.6 MHZ
Type TWR Name TWR Frequency 126.65 MHZ

 AIRPORT NEAR NAVIGATION AIDS


Neither the Department of the Air Force, nor any other component of the Department of Defense or Federal Government has approved, endorsed, or authorized this promotion, activity, or organization. Virtual United States Air Force organization is in no way affiliated with the Department of Defense, Department of the Air Force, or any other federal or government entity. Virtual United States Air Force is a group of flight simulation enthusiasts with the common interest of promoting enjoyment and cameraderie through the simulation of military operations and procedures utilizing several flight simulation platforms.

Copyright © vUSAF, LLC // 2018 All Rights Reserved